sensor_id;sensor_type;location;lat;lon;timestamp;P1;durP1;ratioP1;P2;durP2;ratioP2
76405;SDS011;65234;50.044;19.258;2023-03-23T00:01:11;87.97;;;79.95;;
76405;SDS011;65234;50.044;19.258;2023-03-23T00:03:38;81.22;;;74.53;;
76405;SDS011;65234;50.044;19.258;2023-03-23T00:06:04;85.53;;;78.80;;
76405;SDS011;65234;50.044;19.258;2023-03-23T00:08:31;80.45;;;73.85;;
76405;SDS011;65234;50.044;19.258;2023-03-23T00:10:57;85.40;;;78.43;;
76405;SDS011;65234;50.044;19.258;2023-03-23T00:13:24;83.07;;;75.95;;
76405;SDS011;65234;50.044;19.258;2023-03-23T00:15:50;83.10;;;76.13;;
76405;SDS011;65234;50.044;19.258;2023-03-23T00:18:17;82.93;;;75.68;;
76405;SDS011;65234;50.044;19.258;2023-03-23T00:20:43;84.35;;;77.15;;
76405;SDS011;65234;50.044;19.258;2023-03-23T00:23:09;85.22;;;77.60;;
76405;SDS011;65234;50.044;19.258;2023-03-23T00:25:35;91.28;;;81.53;;
76405;SDS011;65234;50.044;19.258;2023-03-23T00:28:00;90.70;;;80.63;;
76405;SDS011;65234;50.044;19.258;2023-03-23T00:30:26;97.47;;;86.78;;
76405;SDS011;65234;50.044;19.258;2023-03-23T00:32:52;93.25;;;82.88;;
76405;SDS011;65234;50.044;19.258;2023-03-23T00:35:19;88.55;;;79.82;;
76405;SDS011;65234;50.044;19.258;2023-03-23T00:37:44;85.22;;;77.30;;
76405;SDS011;65234;50.044;19.258;2023-03-23T00:40:10;87.85;;;78.57;;
76405;SDS011;65234;50.044;19.258;2023-03-23T00:42:36;84.00;;;76.22;;
76405;SDS011;65234;50.044;19.258;2023-03-23T00:45:02;80.40;;;73.07;;
76405;SDS011;65234;50.044;19.258;2023-03-23T00:47:29;82.28;;;75.40;;
76405;SDS011;65234;50.044;19.258;2023-03-23T00:49:54;81.68;;;74.72;;
76405;SDS011;65234;50.044;19.258;2023-03-23T00:52:21;85.38;;;77.03;;
76405;SDS011;65234;50.044;19.258;2023-03-23T00:54:47;95.43;;;83.75;;
76405;SDS011;65234;50.044;19.258;2023-03-23T00:57:13;104.38;;;81.38;;
76405;SDS011;65234;50.044;19.258;2023-03-23T00:59:39;90.63;;;82.35;;
76405;SDS011;65234;50.044;19.258;2023-03-23T01:02:04;88.97;;;79.55;;
76405;SDS011;65234;50.044;19.258;2023-03-23T01:04:30;87.93;;;79.78;;
76405;SDS011;65234;50.044;19.258;2023-03-23T01:06:56;84.93;;;77.07;;
76405;SDS011;65234;50.044;19.258;2023-03-23T01:09:23;86.22;;;78.72;;
76405;SDS011;65234;50.044;19.258;2023-03-23T01:11:50;85.35;;;77.13;;
76405;SDS011;65234;50.044;19.258;2023-03-23T01:14:17;81.88;;;74.40;;
76405;SDS011;65234;50.044;19.258;2023-03-23T01:16:44;78.85;;;72.35;;
76405;SDS011;65234;50.044;19.258;2023-03-23T01:19:10;82.38;;;74.63;;
76405;SDS011;65234;50.044;19.258;2023-03-23T01:21:36;84.00;;;75.63;;
76405;SDS011;65234;50.044;19.258;2023-03-23T01:24:01;80.47;;;72.50;;
76405;SDS011;65234;50.044;19.258;2023-03-23T01:26:29;77.30;;;70.32;;
76405;SDS011;65234;50.044;19.258;2023-03-23T01:28:54;80.20;;;72.18;;
76405;SDS011;65234;50.044;19.258;2023-03-23T01:31:21;74.47;;;66.53;;
76405;SDS011;65234;50.044;19.258;2023-03-23T01:33:48;78.45;;;71.05;;
76405;SDS011;65234;50.044;19.258;2023-03-23T01:36:15;72.13;;;66.15;;
76405;SDS011;65234;50.044;19.258;2023-03-23T01:38:42;72.75;;;66.80;;
76405;SDS011;65234;50.044;19.258;2023-03-23T01:41:09;68.68;;;63.03;;
76405;SDS011;65234;50.044;19.258;2023-03-23T01:43:36;69.25;;;63.40;;
76405;SDS011;65234;50.044;19.258;2023-03-23T01:46:19;72.22;;;65.07;;
76405;SDS011;65234;50.044;19.258;2023-03-23T01:48:45;74.32;;;67.75;;
76405;SDS011;65234;50.044;19.258;2023-03-23T01:51:12;75.25;;;68.07;;
76405;SDS011;65234;50.044;19.258;2023-03-23T01:53:42;71.43;;;65.68;;
76405;SDS011;65234;50.044;19.258;2023-03-23T01:56:11;73.22;;;66.38;;
76405;SDS011;65234;50.044;19.258;2023-03-23T01:58:40;69.50;;;64.05;;
76405;SDS011;65234;50.044;19.258;2023-03-23T02:01:08;66.32;;;61.15;;
76405;SDS011;65234;50.044;19.258;2023-03-23T02:03:36;71.18;;;65.43;;
76405;SDS011;65234;50.044;19.258;2023-03-23T02:06:04;65.78;;;60.08;;
76405;SDS011;65234;50.044;19.258;2023-03-23T02:08:31;65.68;;;60.28;;
76405;SDS011;65234;50.044;19.258;2023-03-23T02:10:59;64.90;;;59.55;;
76405;SDS011;65234;50.044;19.258;2023-03-23T02:13:25;64.97;;;59.53;;
76405;SDS011;65234;50.044;19.258;2023-03-23T02:15:56;61.22;;;56.65;;
76405;SDS011;65234;50.044;19.258;2023-03-23T02:18:31;67.47;;;61.92;;
76405;SDS011;65234;50.044;19.258;2023-03-23T02:27:14;64.32;;;59.33;;
76405;SDS011;65234;50.044;19.258;2023-03-23T02:29:53;65.95;;;59.22;;
76405;SDS011;65234;50.044;19.258;2023-03-23T02:32:44;62.70;;;58.22;;
76405;SDS011;65234;50.044;19.258;2023-03-23T02:35:26;62.03;;;56.95;;
76405;SDS011;65234;50.044;19.258;2023-03-23T02:37:57;63.63;;;59.22;;
76405;SDS011;65234;50.044;19.258;2023-03-23T02:40:27;64.68;;;60.15;;
76405;SDS011;65234;50.044;19.258;2023-03-23T02:42:57;67.93;;;61.50;;
76405;SDS011;65234;50.044;19.258;2023-03-23T02:45:25;64.30;;;59.30;;
76405;SDS011;65234;50.044;19.258;2023-03-23T02:47:54;66.68;;;61.78;;
76405;SDS011;65234;50.044;19.258;2023-03-23T02:50:22;70.63;;;64.97;;
76405;SDS011;65234;50.044;19.258;2023-03-23T02:52:52;69.78;;;63.95;;
76405;SDS011;65234;50.044;19.258;2023-03-23T02:55:20;64.57;;;59.47;;
76405;SDS011;65234;50.044;19.258;2023-03-23T02:57:47;72.40;;;65.75;;
76405;SDS011;65234;50.044;19.258;2023-03-23T03:00:14;66.00;;;60.92;;
76405;SDS011;65234;50.044;19.258;2023-03-23T03:02:42;67.78;;;61.78;;
76405;SDS011;65234;50.044;19.258;2023-03-23T03:05:10;69.18;;;63.03;;
76405;SDS011;65234;50.044;19.258;2023-03-23T03:07:50;66.97;;;60.55;;
76405;SDS011;65234;50.044;19.258;2023-03-23T03:10:25;63.65;;;57.97;;
76405;SDS011;65234;50.044;19.258;2023-03-23T03:12:55;63.33;;;58.10;;
76405;SDS011;65234;50.044;19.258;2023-03-23T03:15:27;62.25;;;57.85;;
76405;SDS011;65234;50.044;19.258;2023-03-23T03:18:02;65.50;;;60.25;;
76405;SDS011;65234;50.044;19.258;2023-03-23T03:20:35;62.30;;;57.17;;
76405;SDS011;65234;50.044;19.258;2023-03-23T03:23:07;63.13;;;58.33;;
76405;SDS011;65234;50.044;19.258;2023-03-23T03:25:34;68.38;;;61.90;;
76405;SDS011;65234;50.044;19.258;2023-03-23T03:28:00;76.95;;;69.53;;
76405;SDS011;65234;50.044;19.258;2023-03-23T03:30:28;74.00;;;67.50;;
76405;SDS011;65234;50.044;19.258;2023-03-23T03:32:57;76.88;;;69.00;;
76405;SDS011;65234;50.044;19.258;2023-03-23T03:35:23;75.35;;;68.50;;
76405;SDS011;65234;50.044;19.258;2023-03-23T03:37:49;75.38;;;68.03;;
76405;SDS011;65234;50.044;19.258;2023-03-23T03:40:18;74.13;;;68.07;;
76405;SDS011;65234;50.044;19.258;2023-03-23T03:42:45;75.75;;;68.55;;
76405;SDS011;65234;50.044;19.258;2023-03-23T03:45:12;77.55;;;69.97;;
76405;SDS011;65234;50.044;19.258;2023-03-23T03:47:39;73.45;;;67.13;;
76405;SDS011;65234;50.044;19.258;2023-03-23T03:50:05;71.53;;;65.20;;
76405;SDS011;65234;50.044;19.258;2023-03-23T03:52:32;72.78;;;65.55;;
76405;SDS011;65234;50.044;19.258;2023-03-23T03:54:57;76.00;;;68.72;;
76405;SDS011;65234;50.044;19.258;2023-03-23T03:57:25;74.38;;;67.32;;
76405;SDS011;65234;50.044;19.258;2023-03-23T03:59:50;71.88;;;65.75;;
76405;SDS011;65234;50.044;19.258;2023-03-23T04:02:16;74.82;;;67.80;;
76405;SDS011;65234;50.044;19.258;2023-03-23T04:04:42;74.15;;;68.10;;
76405;SDS011;65234;50.044;19.258;2023-03-23T04:07:08;70.93;;;64.75;;
76405;SDS011;65234;50.044;19.258;2023-03-23T04:09:34;71.78;;;64.65;;
76405;SDS011;65234;50.044;19.258;2023-03-23T04:12:00;71.88;;;65.03;;
76405;SDS011;65234;50.044;19.258;2023-03-23T04:14:27;73.93;;;67.70;;
76405;SDS011;65234;50.044;19.258;2023-03-23T04:16:52;71.03;;;64.95;;
76405;SDS011;65234;50.044;19.258;2023-03-23T04:19:18;69.20;;;63.10;;
76405;SDS011;65234;50.044;19.258;2023-03-23T04:21:44;71.90;;;65.15;;
76405;SDS011;65234;50.044;19.258;2023-03-23T04:24:10;73.53;;;67.38;;
76405;SDS011;65234;50.044;19.258;2023-03-23T04:26:35;70.03;;;63.28;;
76405;SDS011;65234;50.044;19.258;2023-03-23T04:29:01;70.85;;;64.57;;
76405;SDS011;65234;50.044;19.258;2023-03-23T04:31:28;72.32;;;65.20;;
76405;SDS011;65234;50.044;19.258;2023-03-23T04:33:54;78.32;;;71.18;;
76405;SDS011;65234;50.044;19.258;2023-03-23T04:36:20;72.47;;;66.22;;
76405;SDS011;65234;50.044;19.258;2023-03-23T04:38:45;72.50;;;66.22;;
76405;SDS011;65234;50.044;19.258;2023-03-23T04:41:11;68.65;;;62.60;;
76405;SDS011;65234;50.044;19.258;2023-03-23T04:43:37;71.90;;;66.05;;
76405;SDS011;65234;50.044;19.258;2023-03-23T04:46:03;71.85;;;66.30;;
76405;SDS011;65234;50.044;19.258;2023-03-23T04:48:31;68.32;;;62.58;;
76405;SDS011;65234;50.044;19.258;2023-03-23T04:50:57;70.70;;;64.32;;
76405;SDS011;65234;50.044;19.258;2023-03-23T04:53:22;73.57;;;66.85;;
76405;SDS011;65234;50.044;19.258;2023-03-23T04:55:48;73.80;;;67.35;;
76405;SDS011;65234;50.044;19.258;2023-03-23T04:58:14;75.28;;;68.35;;
76405;SDS011;65234;50.044;19.258;2023-03-23T05:00:41;71.97;;;65.93;;
76405;SDS011;65234;50.044;19.258;2023-03-23T05:03:08;83.50;;;75.30;;
76405;SDS011;65234;50.044;19.258;2023-03-23T05:05:35;82.30;;;74.45;;
76405;SDS011;65234;50.044;19.258;2023-03-23T05:08:01;85.45;;;77.10;;
76405;SDS011;65234;50.044;19.258;2023-03-23T05:10:27;87.07;;;77.82;;
76405;SDS011;65234;50.044;19.258;2023-03-23T05:12:52;84.50;;;76.40;;
76405;SDS011;65234;50.044;19.258;2023-03-23T05:15:18;84.15;;;75.57;;
76405;SDS011;65234;50.044;19.258;2023-03-23T05:17:44;82.07;;;73.50;;
76405;SDS011;65234;50.044;19.258;2023-03-23T05:20:11;80.72;;;73.72;;
76405;SDS011;65234;50.044;19.258;2023-03-23T05:22:39;81.80;;;74.32;;
76405;SDS011;65234;50.044;19.258;2023-03-23T05:25:05;79.25;;;71.53;;
76405;SDS011;65234;50.044;19.258;2023-03-23T05:27:32;81.55;;;72.75;;
76405;SDS011;65234;50.044;19.258;2023-03-23T05:29:58;79.97;;;72.65;;
76405;SDS011;65234;50.044;19.258;2023-03-23T05:32:24;81.55;;;73.35;;
76405;SDS011;65234;50.044;19.258;2023-03-23T05:34:50;83.45;;;75.45;;
76405;SDS011;65234;50.044;19.258;2023-03-23T05:37:15;82.32;;;73.90;;
76405;SDS011;65234;50.044;19.258;2023-03-23T05:39:42;77.47;;;69.47;;
76405;SDS011;65234;50.044;19.258;2023-03-23T05:42:08;80.72;;;72.35;;
76405;SDS011;65234;50.044;19.258;2023-03-23T05:44:34;81.93;;;74.57;;
76405;SDS011;65234;50.044;19.258;2023-03-23T05:46:59;81.13;;;73.10;;
76405;SDS011;65234;50.044;19.258;2023-03-23T05:49:25;75.47;;;68.57;;
76405;SDS011;65234;50.044;19.258;2023-03-23T05:51:51;75.22;;;67.75;;
76405;SDS011;65234;50.044;19.258;2023-03-23T05:54:17;78.43;;;71.15;;
76405;SDS011;65234;50.044;19.258;2023-03-23T05:56:44;82.30;;;74.45;;
76405;SDS011;65234;50.044;19.258;2023-03-23T05:59:12;79.30;;;71.80;;
76405;SDS011;65234;50.044;19.258;2023-03-23T06:01:37;83.03;;;75.22;;
76405;SDS011;65234;50.044;19.258;2023-03-23T06:04:03;80.32;;;72.40;;
76405;SDS011;65234;50.044;19.258;2023-03-23T06:06:29;78.40;;;71.68;;
76405;SDS011;65234;50.044;19.258;2023-03-23T06:08:56;80.00;;;72.80;;
76405;SDS011;65234;50.044;19.258;2023-03-23T06:11:21;81.50;;;75.18;;
76405;SDS011;65234;50.044;19.258;2023-03-23T06:13:49;83.47;;;76.47;;
76405;SDS011;65234;50.044;19.258;2023-03-23T06:16:14;87.50;;;79.82;;
76405;SDS011;65234;50.044;19.258;2023-03-23T06:18:40;93.00;;;85.05;;
76405;SDS011;65234;50.044;19.258;2023-03-23T06:21:06;88.63;;;81.90;;
76405;SDS011;65234;50.044;19.258;2023-03-23T06:23:32;86.97;;;80.43;;
76405;SDS011;65234;50.044;19.258;2023-03-23T06:25:58;85.57;;;79.05;;
76405;SDS011;65234;50.044;19.258;2023-03-23T06:28:26;86.28;;;79.63;;
76405;SDS011;65234;50.044;19.258;2023-03-23T06:30:53;86.97;;;80.13;;
76405;SDS011;65234;50.044;19.258;2023-03-23T06:33:19;91.18;;;84.32;;
76405;SDS011;65234;50.044;19.258;2023-03-23T06:35:45;86.80;;;80.68;;
76405;SDS011;65234;50.044;19.258;2023-03-23T06:38:11;83.45;;;78.03;;
76405;SDS011;65234;50.044;19.258;2023-03-23T06:40:37;80.80;;;75.25;;
76405;SDS011;65234;50.044;19.258;2023-03-23T06:43:03;87.20;;;81.47;;
76405;SDS011;65234;50.044;19.258;2023-03-23T06:45:28;81.75;;;76.85;;
76405;SDS011;65234;50.044;19.258;2023-03-23T06:47:56;83.18;;;78.40;;
76405;SDS011;65234;50.044;19.258;2023-03-23T06:50:21;84.45;;;80.32;;
76405;SDS011;65234;50.044;19.258;2023-03-23T06:52:48;85.40;;;81.25;;
76405;SDS011;65234;50.044;19.258;2023-03-23T06:55:15;84.32;;;80.18;;
76405;SDS011;65234;50.044;19.258;2023-03-23T06:57:42;90.45;;;85.85;;
76405;SDS011;65234;50.044;19.258;2023-03-23T07:00:08;92.68;;;88.25;;
76405;SDS011;65234;50.044;19.258;2023-03-23T07:02:35;98.82;;;93.82;;
76405;SDS011;65234;50.044;19.258;2023-03-23T07:05:02;97.70;;;93.10;;
76405;SDS011;65234;50.044;19.258;2023-03-23T07:07:28;103.10;;;97.47;;
76405;SDS011;65234;50.044;19.258;2023-03-23T07:09:54;1999.90;;;999.90;;
76405;SDS011;65234;50.044;19.258;2023-03-23T07:12:20;1999.90;;;999.90;;
76405;SDS011;65234;50.044;19.258;2023-03-23T07:14:45;1999.90;;;999.90;;
76405;SDS011;65234;50.044;19.258;2023-03-23T07:17:11;933.88;;;858.88;;
76405;SDS011;65234;50.044;19.258;2023-03-23T07:19:37;674.47;;;628.00;;
76405;SDS011;65234;50.044;19.258;2023-03-23T07:22:05;372.17;;;350.70;;
76405;SDS011;65234;50.044;19.258;2023-03-23T07:24:31;234.02;;;223.20;;
76405;SDS011;65234;50.044;19.258;2023-03-23T07:27:00;197.98;;;188.50;;
76405;SDS011;65234;50.044;19.258;2023-03-23T07:29:26;113.35;;;107.38;;
76405;SDS011;65234;50.044;19.258;2023-03-23T07:31:52;111.90;;;106.32;;
76405;SDS011;65234;50.044;19.258;2023-03-23T07:34:18;116.47;;;111.18;;
76405;SDS011;65234;50.044;19.258;2023-03-23T07:36:44;118.85;;;112.40;;
76405;SDS011;65234;50.044;19.258;2023-03-23T07:39:11;122.10;;;115.40;;
76405;SDS011;65234;50.044;19.258;2023-03-23T07:41:37;120.35;;;114.45;;
76405;SDS011;65234;50.044;19.258;2023-03-23T07:44:03;120.63;;;114.90;;
76405;SDS011;65234;50.044;19.258;2023-03-23T07:46:29;121.15;;;115.00;;
76405;SDS011;65234;50.044;19.258;2023-03-23T07:48:55;122.85;;;116.85;;
76405;SDS011;65234;50.044;19.258;2023-03-23T07:51:21;122.10;;;116.60;;
76405;SDS011;65234;50.044;19.258;2023-03-23T07:53:46;125.95;;;119.93;;
76405;SDS011;65234;50.044;19.258;2023-03-23T07:56:14;125.25;;;119.35;;
76405;SDS011;65234;50.044;19.258;2023-03-23T07:58:39;129.13;;;122.90;;
76405;SDS011;65234;50.044;19.258;2023-03-23T08:01:05;128.38;;;122.38;;
76405;SDS011;65234;50.044;19.258;2023-03-23T08:03:31;127.18;;;121.32;;
76405;SDS011;65234;50.044;19.258;2023-03-23T08:05:57;128.27;;;122.43;;
76405;SDS011;65234;50.044;19.258;2023-03-23T08:08:22;129.48;;;123.40;;
76405;SDS011;65234;50.044;19.258;2023-03-23T08:10:48;131.68;;;125.70;;
76405;SDS011;65234;50.044;19.258;2023-03-23T08:13:15;133.98;;;127.57;;
76405;SDS011;65234;50.044;19.258;2023-03-23T08:15:41;134.60;;;127.85;;
76405;SDS011;65234;50.044;19.258;2023-03-23T08:18:07;126.25;;;120.40;;
76405;SDS011;65234;50.044;19.258;2023-03-23T08:20:33;132.77;;;126.55;;
76405;SDS011;65234;50.044;19.258;2023-03-23T08:22:59;132.65;;;126.50;;
76405;SDS011;65234;50.044;19.258;2023-03-23T08:25:25;139.32;;;132.38;;
76405;SDS011;65234;50.044;19.258;2023-03-23T08:27:51;140.45;;;133.85;;
76405;SDS011;65234;50.044;19.258;2023-03-23T08:30:19;133.95;;;127.55;;
76405;SDS011;65234;50.044;19.258;2023-03-23T08:32:46;139.40;;;133.07;;
76405;SDS011;65234;50.044;19.258;2023-03-23T08:35:12;138.13;;;131.68;;
76405;SDS011;65234;50.044;19.258;2023-03-23T08:37:39;144.63;;;137.90;;
76405;SDS011;65234;50.044;19.258;2023-03-23T08:40:06;137.82;;;131.63;;
76405;SDS011;65234;50.044;19.258;2023-03-23T08:42:32;144.48;;;137.63;;
76405;SDS011;65234;50.044;19.258;2023-03-23T08:44:58;142.70;;;136.20;;
76405;SDS011;65234;50.044;19.258;2023-03-23T08:47:25;144.80;;;138.30;;
76405;SDS011;65234;50.044;19.258;2023-03-23T08:49:51;148.05;;;140.95;;
76405;SDS011;65234;50.044;19.258;2023-03-23T08:52:16;147.80;;;140.98;;
76405;SDS011;65234;50.044;19.258;2023-03-23T08:54:42;149.45;;;142.65;;
76405;SDS011;65234;50.044;19.258;2023-03-23T08:57:08;147.18;;;140.18;;
76405;SDS011;65234;50.044;19.258;2023-03-23T08:59:33;154.93;;;147.77;;
76405;SDS011;65234;50.044;19.258;2023-03-23T09:01:59;155.32;;;148.35;;
76405;SDS011;65234;50.044;19.258;2023-03-23T09:04:26;155.13;;;148.15;;
76405;SDS011;65234;50.044;19.258;2023-03-23T09:06:52;155.32;;;148.40;;
76405;SDS011;65234;50.044;19.258;2023-03-23T09:09:17;159.18;;;151.95;;
76405;SDS011;65234;50.044;19.258;2023-03-23T09:11:43;156.77;;;149.43;;
76405;SDS011;65234;50.044;19.258;2023-03-23T09:14:10;160.10;;;152.75;;
76405;SDS011;65234;50.044;19.258;2023-03-23T09:16:36;156.27;;;149.57;;
76405;SDS011;65234;50.044;19.258;2023-03-23T09:19:02;161.35;;;154.45;;
76405;SDS011;65234;50.044;19.258;2023-03-23T09:21:28;161.60;;;154.40;;
76405;SDS011;65234;50.044;19.258;2023-03-23T09:23:55;165.00;;;157.75;;
76405;SDS011;65234;50.044;19.258;2023-03-23T09:26:21;165.55;;;158.40;;
76405;SDS011;65234;50.044;19.258;2023-03-23T09:28:47;169.52;;;161.93;;
76405;SDS011;65234;50.044;19.258;2023-03-23T09:31:12;165.68;;;158.32;;
76405;SDS011;65234;50.044;19.258;2023-03-23T09:33:38;168.48;;;160.65;;
76405;SDS011;65234;50.044;19.258;2023-03-23T09:36:04;160.88;;;153.98;;
76405;SDS011;65234;50.044;19.258;2023-03-23T09:38:32;164.40;;;157.32;;
76405;SDS011;65234;50.044;19.258;2023-03-23T09:40:59;167.18;;;160.07;;
76405;SDS011;65234;50.044;19.258;2023-03-23T09:43:42;170.45;;;163.13;;
76405;SDS011;65234;50.044;19.258;2023-03-23T09:46:22;178.23;;;170.13;;
76405;SDS011;65234;50.044;19.258;2023-03-23T09:48:56;174.63;;;166.70;;
76405;SDS011;65234;50.044;19.258;2023-03-23T09:51:28;178.43;;;170.60;;
76405;SDS011;65234;50.044;19.258;2023-03-23T09:54:04;175.30;;;167.95;;
76405;SDS011;65234;50.044;19.258;2023-03-23T09:56:35;178.25;;;170.43;;
76405;SDS011;65234;50.044;19.258;2023-03-23T09:59:02;177.75;;;170.10;;
76405;SDS011;65234;50.044;19.258;2023-03-23T10:01:36;182.35;;;174.55;;
76405;SDS011;65234;50.044;19.258;2023-03-23T10:04:07;176.98;;;169.52;;
76405;SDS011;65234;50.044;19.258;2023-03-23T10:06:37;180.27;;;172.73;;
76405;SDS011;65234;50.044;19.258;2023-03-23T10:09:05;185.25;;;177.38;;
76405;SDS011;65234;50.044;19.258;2023-03-23T10:11:33;185.75;;;177.65;;
76405;SDS011;65234;50.044;19.258;2023-03-23T10:14:12;188.80;;;180.57;;
76405;SDS011;65234;50.044;19.258;2023-03-23T10:16:51;182.80;;;175.07;;
76405;SDS011;65234;50.044;19.258;2023-03-23T10:19:27;194.68;;;186.45;;
76405;SDS011;65234;50.044;19.258;2023-03-23T10:22:01;195.13;;;186.82;;
76405;SDS011;65234;50.044;19.258;2023-03-23T10:24:34;193.10;;;184.82;;
76405;SDS011;65234;50.044;19.258;2023-03-23T10:27:04;198.63;;;190.35;;
76405;SDS011;65234;50.044;19.258;2023-03-23T10:29:38;202.57;;;194.20;;
76405;SDS011;65234;50.044;19.258;2023-03-23T10:32:09;192.65;;;184.45;;
76405;SDS011;65234;50.044;19.258;2023-03-23T10:34:40;213.55;;;204.50;;
76405;SDS011;65234;50.044;19.258;2023-03-23T10:37:08;207.23;;;198.55;;
76405;SDS011;65234;50.044;19.258;2023-03-23T10:39:41;208.77;;;200.15;;
76405;SDS011;65234;50.044;19.258;2023-03-23T10:44:37;202.95;;;194.45;;
76405;SDS011;65234;50.044;19.258;2023-03-23T10:47:03;209.93;;;201.15;;
76405;SDS011;65234;50.044;19.258;2023-03-23T10:49:32;216.07;;;206.75;;
76405;SDS011;65234;50.044;19.258;2023-03-23T10:52:03;219.13;;;209.73;;
76405;SDS011;65234;50.044;19.258;2023-03-23T10:54:36;218.55;;;209.40;;
76405;SDS011;65234;50.044;19.258;2023-03-23T10:57:12;223.70;;;214.13;;
76405;SDS011;65234;50.044;19.258;2023-03-23T10:59:46;238.55;;;227.82;;
76405;SDS011;65234;50.044;19.258;2023-03-23T11:02:13;232.73;;;222.43;;
76405;SDS011;65234;50.044;19.258;2023-03-23T11:04:45;239.30;;;229.48;;
76405;SDS011;65234;50.044;19.258;2023-03-23T11:07:13;234.60;;;225.07;;
76405;SDS011;65234;50.044;19.258;2023-03-23T11:09:51;237.73;;;227.93;;
76405;SDS011;65234;50.044;19.258;2023-03-23T11:12:20;238.95;;;229.10;;
76405;SDS011;65234;50.044;19.258;2023-03-23T11:14:46;237.95;;;228.00;;
76405;SDS011;65234;50.044;19.258;2023-03-23T11:17:19;235.02;;;225.52;;
76405;SDS011;65234;50.044;19.258;2023-03-23T11:19:47;229.18;;;219.75;;
76405;SDS011;65234;50.044;19.258;2023-03-23T11:22:14;220.68;;;211.23;;
76405;SDS011;65234;50.044;19.258;2023-03-23T11:24:45;226.93;;;217.23;;
76405;SDS011;65234;50.044;19.258;2023-03-23T11:27:13;226.25;;;215.80;;
76405;SDS011;65234;50.044;19.258;2023-03-23T11:29:47;224.10;;;214.85;;
76405;SDS011;65234;50.044;19.258;2023-03-23T11:32:15;222.30;;;212.85;;
76405;SDS011;65234;50.044;19.258;2023-03-23T11:34:42;222.15;;;212.73;;
76405;SDS011;65234;50.044;19.258;2023-03-23T11:37:10;220.68;;;211.73;;
76405;SDS011;65234;50.044;19.258;2023-03-23T11:39:46;210.27;;;201.57;;
76405;SDS011;65234;50.044;19.258;2023-03-23T11:42:17;216.98;;;208.10;;
76405;SDS011;65234;50.044;19.258;2023-03-23T11:44:45;214.75;;;205.93;;
76405;SDS011;65234;50.044;19.258;2023-03-23T11:47:15;214.80;;;205.93;;
76405;SDS011;65234;50.044;19.258;2023-03-23T11:49:47;215.20;;;206.18;;
76405;SDS011;65234;50.044;19.258;2023-03-23T11:52:20;216.98;;;207.57;;
76405;SDS011;65234;50.044;19.258;2023-03-23T11:54:50;216.93;;;207.63;;
76405;SDS011;65234;50.044;19.258;2023-03-23T11:57:22;214.27;;;205.30;;
76405;SDS011;65234;50.044;19.258;2023-03-23T11:59:49;218.98;;;209.85;;
76405;SDS011;65234;50.044;19.258;2023-03-23T12:02:26;217.52;;;208.55;;
76405;SDS011;65234;50.044;19.258;2023-03-23T12:05:03;214.52;;;205.30;;
76405;SDS011;65234;50.044;19.258;2023-03-23T12:07:48;215.00;;;205.98;;
76405;SDS011;65234;50.044;19.258;2023-03-23T12:10:24;212.50;;;203.20;;
76405;SDS011;65234;50.044;19.258;2023-03-23T12:12:55;209.52;;;200.90;;
76405;SDS011;65234;50.044;19.258;2023-03-23T12:15:30;206.40;;;197.63;;
76405;SDS011;65234;50.044;19.258;2023-03-23T12:18:03;211.13;;;202.13;;
76405;SDS011;65234;50.044;19.258;2023-03-23T12:20:40;202.93;;;194.63;;
76405;SDS011;65234;50.044;19.258;2023-03-23T12:23:21;190.23;;;182.27;;
76405;SDS011;65234;50.044;19.258;2023-03-23T12:25:56;207.82;;;199.25;;
76405;SDS011;65234;50.044;19.258;2023-03-23T12:28:32;212.70;;;203.30;;
76405;SDS011;65234;50.044;19.258;2023-03-23T12:31:08;210.35;;;201.57;;
76405;SDS011;65234;50.044;19.258;2023-03-23T12:33:43;197.82;;;189.48;;
76405;SDS011;65234;50.044;19.258;2023-03-23T12:36:22;196.80;;;188.73;;
76405;SDS011;65234;50.044;19.258;2023-03-23T12:39:03;195.07;;;187.10;;
76405;SDS011;65234;50.044;19.258;2023-03-23T12:41:40;193.82;;;185.80;;
76405;SDS011;65234;50.044;19.258;2023-03-23T12:44:10;189.48;;;181.40;;
76405;SDS011;65234;50.044;19.258;2023-03-23T12:46:44;201.65;;;193.23;;
76405;SDS011;65234;50.044;19.258;2023-03-23T12:49:34;196.00;;;187.88;;
76405;SDS011;65234;50.044;19.258;2023-03-23T12:52:04;190.65;;;182.70;;
76405;SDS011;65234;50.044;19.258;2023-03-23T12:54:39;190.65;;;182.70;;
76405;SDS011;65234;50.044;19.258;2023-03-23T12:57:09;194.10;;;186.13;;
76405;SDS011;65234;50.044;19.258;2023-03-23T12:59:39;187.70;;;179.68;;
76405;SDS011;65234;50.044;19.258;2023-03-23T13:02:13;194.93;;;186.68;;
76405;SDS011;65234;50.044;19.258;2023-03-23T13:04:45;191.98;;;183.85;;
76405;SDS011;65234;50.044;19.258;2023-03-23T13:07:14;190.52;;;182.65;;
76405;SDS011;65234;50.044;19.258;2023-03-23T13:09:48;191.65;;;183.25;;
76405;SDS011;65234;50.044;19.258;2023-03-23T13:12:18;193.63;;;185.73;;
76405;SDS011;65234;50.044;19.258;2023-03-23T13:14:46;192.70;;;184.43;;
76405;SDS011;65234;50.044;19.258;2023-03-23T13:17:25;193.35;;;185.25;;
76405;SDS011;65234;50.044;19.258;2023-03-23T13:20:04;193.75;;;185.45;;
76405;SDS011;65234;50.044;19.258;2023-03-23T13:22:42;182.77;;;175.07;;
76405;SDS011;65234;50.044;19.258;2023-03-23T13:25:14;196.00;;;187.95;;
76405;SDS011;65234;50.044;19.258;2023-03-23T13:27:44;190.73;;;182.40;;
76405;SDS011;65234;50.044;19.258;2023-03-23T13:30:21;198.85;;;190.60;;
76405;SDS011;65234;50.044;19.258;2023-03-23T13:32:49;188.48;;;180.57;;
76405;SDS011;65234;50.044;19.258;2023-03-23T13:35:16;201.57;;;193.02;;
76405;SDS011;65234;50.044;19.258;2023-03-23T13:37:44;200.40;;;191.50;;
76405;SDS011;65234;50.044;19.258;2023-03-23T13:40:19;198.35;;;190.27;;
76405;SDS011;65234;50.044;19.258;2023-03-23T13:42:51;199.18;;;190.73;;
76405;SDS011;65234;50.044;19.258;2023-03-23T13:45:20;196.75;;;188.35;;
76405;SDS011;65234;50.044;19.258;2023-03-23T13:47:49;200.48;;;192.02;;
76405;SDS011;65234;50.044;19.258;2023-03-23T13:50:27;196.40;;;188.18;;
76405;SDS011;65234;50.044;19.258;2023-03-23T13:52:58;200.38;;;191.90;;
76405;SDS011;65234;50.044;19.258;2023-03-23T13:55:38;206.50;;;197.90;;
76405;SDS011;65234;50.044;19.258;2023-03-23T13:58:10;196.00;;;187.77;;
76405;SDS011;65234;50.044;19.258;2023-03-23T14:00:44;209.95;;;200.88;;
76405;SDS011;65234;50.044;19.258;2023-03-23T14:03:14;202.02;;;193.23;;
76405;SDS011;65234;50.044;19.258;2023-03-23T14:05:44;204.45;;;196.10;;
76405;SDS011;65234;50.044;19.258;2023-03-23T14:08:12;210.20;;;201.40;;
76405;SDS011;65234;50.044;19.258;2023-03-23T14:10:49;210.30;;;201.68;;
76405;SDS011;65234;50.044;19.258;2023-03-23T14:13:18;207.25;;;198.40;;